createdAt,value
2023-04-05T00:01:12.351Z,99.90
2023-04-05T00:03:41.181Z,99.90
2023-04-05T00:06:13.051Z,99.90
2023-04-05T00:08:41.310Z,99.90
2023-04-05T00:11:09.376Z,99.90
2023-04-05T00:13:38.918Z,99.90
2023-04-05T00:16:08.457Z,99.90
2023-04-05T00:18:38.412Z,99.90
2023-04-05T00:21:07.050Z,99.90
2023-04-05T00:23:39.574Z,99.90
2023-04-05T00:26:07.528Z,99.90
2023-04-05T00:28:36.235Z,99.90
2023-04-05T00:31:05.206Z,99.90
2023-04-05T00:33:33.313Z,99.90
2023-04-05T00:36:10.412Z,99.90
2023-04-05T00:38:41.104Z,99.90
2023-04-05T00:41:09.689Z,99.90
2023-04-05T00:43:37.782Z,99.90
2023-04-05T00:46:06.921Z,99.90
2023-04-05T00:48:35.610Z,99.90
2023-04-05T00:51:03.785Z,99.90
2023-04-05T00:53:32.545Z,99.90
2023-04-05T00:56:02.951Z,99.90
2023-04-05T00:58:31.900Z,99.90
2023-04-05T01:01:05.374Z,99.90
2023-04-05T01:03:35.670Z,99.90
2023-04-05T01:06:15.470Z,99.90
2023-04-05T01:08:53.139Z,99.90
2023-04-05T01:11:24.259Z,99.90
2023-04-05T01:13:52.376Z,99.90
2023-04-05T01:16:20.353Z,99.90
2023-04-05T01:18:48.353Z,99.90
2023-04-05T01:21:39.127Z,99.90
2023-04-05T01:24:17.031Z,99.90
2023-04-05T01:26:59.001Z,99.90
2023-04-05T01:30:04.980Z,99.90
2023-04-05T01:32:51.309Z,99.90
2023-04-05T01:35:25.839Z,99.90
2023-04-05T01:37:58.590Z,99.90
2023-04-05T01:40:27.145Z,99.90
2023-04-05T01:42:55.250Z,99.90
2023-04-05T01:45:24.695Z,99.90
2023-04-05T01:47:53.314Z,99.90
2023-04-05T01:50:21.749Z,99.90
2023-04-05T01:52:49.728Z,99.90
2023-04-05T01:55:17.918Z,99.90
2023-04-05T01:57:45.997Z,99.90
2023-04-05T02:00:14.861Z,99.90
2023-04-05T02:02:44.219Z,99.90
2023-04-05T02:05:12.292Z,99.90
2023-04-05T02:07:40.296Z,99.90
2023-04-05T02:10:09.715Z,99.90
2023-04-05T02:12:40.005Z,99.90
2023-04-05T02:15:08.994Z,99.90
2023-04-05T02:17:39.365Z,99.90
2023-04-05T02:20:12.487Z,99.90
2023-04-05T02:22:40.872Z,99.90
2023-04-05T02:25:09.789Z,99.90
2023-04-05T02:27:39.380Z,99.90
2023-04-05T02:30:08.654Z,99.90
2023-04-05T02:32:36.982Z,99.90
2023-04-05T02:35:05.557Z,99.90
2023-04-05T02:37:35.007Z,99.90
2023-04-05T02:40:03.988Z,99.90
2023-04-05T02:42:31.971Z,99.90
2023-04-05T02:44:59.956Z,99.90
2023-04-05T02:47:28.976Z,99.90
2023-04-05T02:50:00.377Z,99.90
2023-04-05T02:52:37.500Z,99.90
2023-04-05T02:55:06.375Z,99.90
2023-04-05T02:57:35.549Z,99.90
2023-04-05T03:00:13.082Z,99.90
2023-04-05T03:02:41.319Z,99.90
2023-04-05T03:05:10.320Z,99.90
2023-04-05T03:07:42.527Z,99.90
2023-04-05T03:10:13.800Z,99.90
2023-04-05T03:12:42.813Z,99.90
2023-04-05T03:15:12.517Z,99.90
2023-04-05T03:17:45.869Z,99.90
2023-04-05T03:20:15.012Z,99.90
2023-04-05T03:22:44.443Z,99.90
2023-04-05T03:25:16.127Z,99.90
2023-04-05T03:27:47.914Z,99.90
2023-04-05T03:30:18.653Z,99.90
2023-04-05T03:32:53.911Z,99.90
2023-04-05T03:35:41.360Z,99.90
2023-04-05T03:38:12.785Z,99.90
2023-04-05T03:40:49.087Z,99.90
2023-04-05T03:43:17.095Z,99.90
2023-04-05T03:45:45.421Z,99.90
2023-04-05T03:48:13.696Z,99.90
2023-04-05T03:50:42.725Z,99.90
2023-04-05T03:53:12.166Z,99.90
2023-04-05T03:55:40.699Z,99.90
2023-04-05T03:58:08.893Z,99.90
2023-04-05T04:00:37.961Z,99.90
2023-04-05T04:03:21.021Z,99.90
2023-04-05T04:05:52.389Z,99.90
2023-04-05T04:08:22.791Z,99.90
2023-04-05T04:10:51.489Z,99.90
2023-04-05T04:13:23.962Z,99.90
2023-04-05T04:16:10.373Z,99.90
2023-04-05T04:18:56.946Z,99.90
2023-04-05T04:21:48.699Z,99.90
2023-04-05T04:24:40.932Z,99.90
2023-04-05T04:27:17.065Z,99.90
2023-04-05T04:30:04.537Z,99.90
2023-04-05T04:32:54.735Z,99.90
2023-04-05T04:35:34.754Z,99.90
2023-04-05T04:38:25.895Z,99.90
2023-04-05T04:41:11.770Z,99.90
2023-04-05T04:44:14.772Z,99.90
2023-04-05T04:47:03.697Z,99.90
2023-04-05T04:49:55.105Z,99.90
2023-04-05T04:52:23.133Z,99.90
2023-04-05T04:54:52.313Z,99.90
2023-04-05T04:57:21.688Z,99.90
2023-04-05T04:59:49.824Z,99.90
2023-04-05T05:02:17.809Z,99.90
2023-04-05T05:04:45.881Z,99.90
2023-04-05T05:07:13.821Z,99.90
2023-04-05T05:09:41.787Z,99.90
2023-04-05T05:12:09.809Z,99.90
2023-04-05T05:14:39.202Z,99.90
2023-04-05T05:17:08.644Z,99.90
2023-04-05T05:19:36.585Z,99.90
2023-04-05T05:22:04.564Z,99.90
2023-04-05T05:24:32.527Z,99.90
2023-04-05T05:27:00.539Z,99.90
2023-04-05T05:29:28.653Z,99.90
2023-04-05T05:31:58.045Z,99.90
2023-04-05T05:34:26.469Z,99.90
2023-04-05T05:36:57.852Z,99.90
2023-04-05T05:39:25.862Z,99.90
2023-04-05T05:41:53.840Z,99.90
2023-04-05T05:44:21.822Z,99.90
2023-04-05T05:46:49.890Z,99.90
2023-04-05T05:49:19.537Z,99.90
2023-04-05T05:51:47.560Z,99.90
2023-04-05T05:54:15.559Z,99.90
2023-04-05T05:56:43.522Z,99.90
2023-04-05T05:59:12.016Z,99.90
2023-04-05T06:01:42.486Z,99.90
2023-04-05T06:04:10.739Z,99.90
2023-04-05T06:06:40.499Z,99.90
2023-04-05T06:09:08.476Z,99.90
2023-04-05T06:11:38.974Z,99.90
2023-04-05T06:14:11.506Z,99.90
2023-04-05T06:16:39.605Z,99.90
2023-04-05T06:19:07.636Z,99.90
2023-04-05T06:21:35.645Z,99.90
2023-04-05T06:24:05.318Z,99.90
2023-04-05T06:26:33.288Z,99.90
2023-04-05T06:29:01.302Z,99.90
2023-04-05T06:31:33.215Z,99.90
2023-04-05T06:34:01.268Z,99.90
2023-04-05T06:36:33.928Z,99.90
2023-04-05T06:39:01.934Z,99.90
2023-04-05T06:41:31.276Z,99.90
2023-04-05T06:43:59.278Z,99.90
2023-04-05T06:46:27.487Z,99.90
2023-04-05T06:48:55.582Z,99.90
2023-04-05T06:51:23.720Z,99.90
2023-04-05T06:53:51.718Z,99.90
2023-04-05T06:56:19.698Z,99.90
2023-04-05T06:58:49.639Z,99.90
2023-04-05T07:01:18.531Z,99.90
2023-04-05T07:03:46.518Z,99.90
2023-04-05T07:06:14.504Z,99.90
2023-04-05T07:08:42.759Z,99.90
2023-04-05T07:11:11.319Z,99.90
2023-04-05T07:13:39.376Z,99.90
2023-04-05T07:16:09.031Z,99.90
2023-04-05T07:18:37.059Z,99.90
2023-04-05T07:21:05.141Z,99.90
2023-04-05T07:23:33.213Z,99.90
2023-04-05T07:26:04.391Z,99.90
2023-04-05T07:28:33.722Z,99.90
2023-04-05T07:31:01.840Z,99.90
2023-04-05T07:33:31.318Z,99.90
2023-04-05T07:35:59.530Z,99.90
2023-04-05T07:38:29.238Z,99.90
2023-04-05T07:40:57.419Z,99.90
2023-04-05T07:43:25.832Z,99.90
2023-04-05T07:45:53.949Z,99.90
2023-04-05T07:48:22.042Z,99.90
2023-04-05T07:50:52.845Z,99.90
2023-04-05T07:53:20.934Z,99.90
2023-04-05T07:55:48.948Z,99.90
2023-04-05T07:58:17.547Z,99.50
2023-04-05T08:00:45.552Z,99.50
2023-04-05T08:03:13.650Z,99.70
2023-04-05T08:05:41.686Z,99.90
2023-04-05T08:08:11.237Z,99.50
2023-04-05T08:10:40.774Z,99.40
2023-04-05T08:13:08.949Z,99.00
2023-04-05T08:15:37.439Z,98.50
2023-04-05T08:18:05.530Z,98.30
2023-04-05T08:20:39.086Z,97.90
2023-04-05T08:23:07.814Z,98.10
2023-04-05T08:25:37.462Z,97.80
2023-04-05T08:28:05.630Z,97.70
2023-04-05T08:30:33.609Z,97.90
2023-04-05T08:33:01.653Z,97.90
2023-04-05T08:35:29.736Z,97.50
2023-04-05T08:37:57.939Z,97.60
2023-04-05T08:40:34.125Z,97.60
2023-04-05T08:43:11.348Z,96.80
2023-04-05T08:45:47.493Z,96.80
2023-04-05T08:48:15.767Z,96.80
2023-04-05T08:50:43.922Z,96.30
2023-04-05T08:53:12.076Z,96.30
2023-04-05T08:55:41.223Z,96.00
2023-04-05T08:58:15.356Z,95.60
2023-04-05T09:00:44.133Z,95.90
2023-04-05T09:03:16.611Z,95.70
2023-04-05T09:05:48.134Z,95.00
2023-04-05T09:08:16.520Z,95.20
2023-04-05T09:10:45.403Z,95.10
2023-04-05T09:13:14.740Z,95.00
2023-04-05T09:15:42.877Z,94.90
2023-04-05T09:18:23.346Z,95.20
2023-04-05T09:20:58.209Z,95.20
2023-04-05T09:23:26.242Z,95.30
2023-04-05T09:25:54.320Z,94.50
2023-04-05T09:28:23.722Z,94.70
2023-04-05T09:30:51.769Z,94.10
2023-04-05T09:33:22.006Z,94.20
2023-04-05T09:35:52.192Z,93.80
2023-04-05T09:38:41.776Z,93.40
2023-04-05T09:41:10.832Z,92.80
2023-04-05T09:43:41.242Z,92.50
2023-04-05T09:46:17.354Z,92.20
2023-04-05T09:48:49.319Z,91.30
2023-04-05T09:51:17.919Z,91.20
2023-04-05T09:53:59.697Z,91.30
2023-04-05T09:56:28.306Z,90.30
2023-04-05T09:59:02.508Z,90.50
2023-04-05T10:01:32.462Z,90.20
2023-04-05T10:04:01.307Z,89.30
2023-04-05T10:06:40.123Z,90.10
2023-04-05T10:09:10.223Z,87.00
2023-04-05T10:11:39.233Z,87.70
2023-04-05T10:14:09.639Z,86.70
2023-04-05T10:16:42.234Z,86.00
2023-04-05T10:19:21.215Z,87.00
2023-04-05T10:21:50.339Z,86.40
2023-04-05T10:24:29.082Z,86.50
2023-04-05T10:27:05.877Z,84.60
2023-04-05T10:29:52.129Z,83.20
2023-04-05T10:32:31.103Z,82.40
2023-04-05T10:35:08.733Z,82.00
2023-04-05T10:37:43.880Z,81.60
2023-04-05T10:40:14.109Z,81.60
2023-04-05T10:42:44.633Z,82.30
2023-04-05T10:45:19.504Z,81.90
2023-04-05T10:47:51.134Z,80.80
2023-04-05T10:50:23.264Z,81.10
2023-04-05T10:52:52.903Z,80.90
2023-04-05T10:55:22.055Z,81.80
2023-04-05T10:57:51.251Z,80.60
2023-04-05T11:00:21.854Z,80.30
2023-04-05T11:02:54.755Z,80.00
2023-04-05T11:05:34.113Z,79.70
2023-04-05T11:08:06.027Z,79.60
2023-04-05T11:10:37.470Z,78.70
2023-04-05T11:13:07.505Z,78.90
2023-04-05T11:15:37.695Z,78.40
2023-04-05T11:18:11.394Z,77.20
2023-04-05T11:20:44.294Z,77.10
2023-04-05T11:23:13.663Z,74.80
2023-04-05T11:25:46.799Z,74.60
2023-04-05T11:28:24.923Z,75.50
2023-04-05T11:30:57.038Z,74.60
2023-04-05T11:33:56.691Z,73.30
2023-04-05T11:36:33.602Z,73.80
2023-04-05T11:39:24.189Z,73.60
2023-04-05T11:41:57.282Z,72.40
2023-04-05T11:44:25.568Z,73.00
2023-04-05T11:46:55.891Z,73.10
2023-04-05T11:49:25.321Z,72.80
2023-04-05T11:51:54.612Z,73.10
2023-04-05T11:54:32.510Z,69.40
2023-04-05T11:57:02.145Z,68.50
2023-04-05T11:59:31.739Z,70.10
2023-04-05T12:02:02.560Z,70.70
2023-04-05T12:04:30.859Z,70.70
2023-04-05T12:07:15.484Z,70.90
2023-04-05T12:10:09.031Z,68.40
2023-04-05T12:12:38.710Z,68.20
2023-04-05T12:15:09.420Z,67.20
2023-04-05T12:17:43.664Z,66.50
2023-04-05T12:20:12.821Z,66.70
2023-04-05T12:22:42.410Z,66.90
2023-04-05T12:25:11.279Z,67.20
2023-04-05T12:27:40.548Z,67.20
2023-04-05T12:30:16.564Z,68.20
2023-04-05T12:32:48.701Z,68.60
2023-04-05T12:35:21.699Z,66.20
2023-04-05T12:37:52.360Z,64.70
2023-04-05T12:40:24.811Z,65.90
2023-04-05T12:42:53.342Z,64.10
2023-04-05T12:45:24.836Z,63.50
2023-04-05T12:47:57.924Z,62.10
2023-04-05T12:50:30.541Z,61.60
2023-04-05T12:53:00.128Z,61.40
2023-04-05T12:55:30.052Z,61.40
2023-04-05T12:58:00.910Z,62.10
2023-04-05T13:00:30.904Z,61.90
2023-04-05T13:03:01.025Z,61.00
2023-04-05T13:05:30.922Z,61.10
2023-04-05T13:07:59.495Z,60.80
2023-04-05T13:10:27.600Z,59.70
2023-04-05T13:12:55.758Z,58.70
2023-04-05T13:15:23.924Z,57.30
2023-04-05T13:17:53.432Z,57.70
2023-04-05T13:20:23.320Z,57.40
2023-04-05T13:22:51.575Z,56.20
2023-04-05T13:25:19.656Z,57.00
2023-04-05T13:27:47.981Z,56.50
2023-04-05T13:30:16.369Z,57.20
2023-04-05T13:32:44.452Z,57.80
2023-04-05T13:35:12.521Z,58.00
2023-04-05T13:37:41.934Z,57.90
2023-04-05T13:40:10.895Z,57.70
2023-04-05T13:42:39.046Z,56.90
2023-04-05T13:45:08.163Z,57.00
2023-04-05T13:47:37.192Z,57.50
2023-04-05T13:50:06.216Z,57.50
2023-04-05T13:52:34.511Z,56.60
2023-04-05T13:55:04.463Z,57.00
2023-04-05T13:57:32.926Z,57.10
2023-04-05T14:00:01.058Z,55.90
2023-04-05T14:02:29.516Z,55.90
2023-04-05T14:04:57.632Z,54.60
2023-04-05T14:07:26.286Z,54.30
2023-04-05T14:09:54.334Z,54.40
2023-04-05T14:12:23.818Z,54.40
2023-04-05T14:14:52.065Z,54.90
2023-04-05T14:17:20.275Z,55.30
2023-04-05T14:19:48.404Z,54.80
2023-04-05T14:22:16.974Z,55.10
2023-04-05T14:24:45.106Z,54.70
2023-04-05T14:27:13.238Z,53.70
2023-04-05T14:29:44.215Z,52.30
2023-04-05T14:32:12.478Z,51.40
2023-04-05T14:34:40.643Z,51.00
2023-04-05T14:37:08.929Z,48.90
2023-04-05T14:39:37.071Z,47.90
2023-04-05T14:42:05.363Z,46.60
2023-04-05T14:44:33.564Z,45.60
2023-04-05T14:47:03.076Z,44.40
2023-04-05T14:49:31.258Z,42.90
2023-04-05T14:51:59.428Z,42.20
2023-04-05T14:54:27.630Z,41.30
2023-04-05T14:56:55.887Z,40.30
2023-04-05T14:59:24.145Z,39.90
2023-04-05T15:01:52.442Z,39.50
2023-04-05T15:04:22.115Z,37.80
2023-04-05T15:06:50.284Z,36.30
2023-04-05T15:09:18.396Z,36.20
2023-04-05T15:11:46.543Z,36.40
2023-04-05T15:14:24.952Z,36.00
2023-04-05T15:16:59.683Z,35.30
2023-04-05T15:19:30.530Z,34.70
2023-04-05T15:21:58.876Z,34.20
2023-04-05T15:24:27.130Z,34.70
2023-04-05T15:27:01.713Z,35.70
2023-04-05T15:29:30.142Z,37.80
2023-04-05T15:31:58.539Z,38.80
2023-04-05T15:34:28.375Z,39.90
2023-04-05T15:36:56.612Z,40.20
2023-04-05T15:39:25.864Z,41.00
2023-04-05T15:41:53.973Z,41.70
2023-04-05T15:44:22.047Z,43.00
2023-04-05T15:46:50.217Z,43.50
2023-04-05T15:49:18.404Z,42.50
2023-04-05T15:51:47.901Z,43.20
2023-04-05T15:54:18.797Z,43.90
2023-04-05T15:56:47.183Z,44.00
2023-04-05T15:59:15.812Z,43.80
2023-04-05T16:01:44.200Z,44.30
2023-04-05T16:04:12.488Z,44.70
2023-04-05T16:06:40.814Z,45.20
2023-04-05T16:09:10.323Z,44.90
2023-04-05T16:11:38.614Z,45.00
2023-04-05T16:14:07.181Z,45.00
2023-04-05T16:16:45.955Z,45.20
2023-04-05T16:19:21.103Z,45.30
2023-04-05T16:21:49.489Z,45.90
2023-04-05T16:24:19.826Z,46.70
2023-04-05T16:26:47.988Z,46.90
2023-04-05T16:29:16.079Z,46.90
2023-04-05T16:31:47.186Z,46.80
2023-04-05T16:34:15.646Z,46.70
2023-04-05T16:36:43.923Z,46.60
2023-04-05T16:39:12.222Z,46.90
2023-04-05T16:41:41.825Z,46.60
2023-04-05T16:44:10.294Z,47.00
2023-04-05T16:46:38.532Z,47.00
2023-04-05T16:49:06.729Z,47.20
2023-04-05T16:51:36.676Z,47.00
2023-04-05T16:54:05.216Z,47.20
2023-04-05T16:56:33.396Z,47.40
2023-04-05T16:59:04.995Z,47.00
2023-04-05T17:01:34.968Z,46.90
2023-04-05T17:04:03.824Z,47.30
2023-04-05T17:06:32.552Z,47.90
2023-04-05T17:09:00.803Z,47.70
2023-04-05T17:11:29.247Z,47.90
2023-04-05T17:13:59.215Z,48.00
2023-04-05T17:16:28.800Z,48.60
2023-04-05T17:18:57.117Z,48.80
2023-04-05T17:21:25.822Z,48.30
2023-04-05T17:23:54.027Z,49.30
2023-04-05T17:26:23.198Z,48.20
2023-04-05T17:28:51.374Z,48.30
2023-04-05T17:31:20.261Z,48.50
2023-04-05T17:33:49.950Z,47.80
2023-04-05T17:36:18.491Z,48.10
2023-04-05T17:38:46.778Z,48.60
2023-04-05T17:41:14.896Z,49.40
2023-04-05T17:43:43.037Z,49.60
2023-04-05T17:46:13.857Z,49.80
2023-04-05T17:48:42.342Z,50.50
2023-04-05T17:51:11.879Z,51.00
2023-04-05T17:53:40.028Z,51.60
2023-04-05T17:56:08.165Z,52.20
2023-04-05T17:58:36.302Z,52.80
2023-04-05T18:01:04.883Z,52.90
2023-04-05T18:03:33.128Z,53.50
2023-04-05T18:06:02.090Z,53.00
2023-04-05T18:08:31.588Z,53.00
2023-04-05T18:11:00.682Z,53.40
2023-04-05T18:13:29.447Z,53.60
2023-04-05T18:15:59.035Z,53.80
2023-04-05T18:18:28.550Z,53.80
2023-04-05T18:21:01.673Z,54.20
2023-04-05T18:23:31.247Z,53.80
2023-04-05T18:25:59.441Z,54.00
2023-04-05T18:28:28.490Z,53.90
2023-04-05T18:30:56.600Z,53.70
2023-04-05T18:33:24.730Z,53.90
2023-04-05T18:35:53.401Z,54.40
2023-04-05T18:38:21.941Z,54.40
2023-04-05T18:40:51.586Z,54.80
2023-04-05T18:43:19.719Z,57.20
2023-04-05T18:45:47.871Z,58.20
2023-04-05T18:48:16.033Z,58.80
2023-04-05T18:50:44.115Z,58.80
2023-04-05T18:53:12.362Z,59.20
2023-04-05T18:55:40.719Z,60.40
2023-04-05T18:58:10.287Z,60.50
2023-04-05T19:00:38.579Z,60.60
2023-04-05T19:03:06.750Z,61.30
2023-04-05T19:05:34.899Z,61.30
2023-04-05T19:08:02.995Z,61.80
2023-04-05T19:10:32.092Z,62.80
2023-04-05T19:13:00.225Z,63.70
2023-04-05T19:15:29.701Z,63.20
2023-04-05T19:17:58.222Z,63.50
2023-04-05T19:20:26.423Z,64.70
2023-04-05T19:22:54.569Z,65.30
2023-04-05T19:25:22.679Z,65.30
2023-04-05T19:27:50.838Z,66.00
2023-04-05T19:30:19.252Z,65.80
2023-04-05T19:32:48.832Z,65.50
2023-04-05T19:35:17.134Z,66.10
2023-04-05T19:37:45.227Z,66.50
2023-04-05T19:40:13.501Z,66.90
2023-04-05T19:42:47.254Z,67.10
2023-04-05T19:45:22.753Z,64.50
2023-04-05T19:47:52.491Z,65.00
2023-04-05T19:50:46.797Z,64.30
2023-04-05T19:53:43.135Z,66.40
2023-04-05T19:56:14.030Z,67.60
2023-04-05T19:58:43.144Z,70.00
2023-04-05T20:01:11.384Z,71.80
2023-04-05T20:03:42.381Z,73.20
2023-04-05T20:06:12.872Z,74.30
2023-04-05T20:08:42.951Z,74.70
2023-04-05T20:11:14.041Z,73.90
2023-04-05T20:13:46.214Z,72.20
2023-04-05T20:16:15.611Z,72.10
2023-04-05T20:18:47.972Z,71.40
2023-04-05T20:21:17.299Z,71.80
2023-04-05T20:23:46.293Z,72.60
2023-04-05T20:26:16.458Z,75.20
2023-04-05T20:28:53.330Z,76.70
2023-04-05T20:31:24.113Z,76.80
2023-04-05T20:33:55.341Z,78.80
2023-04-05T20:36:29.025Z,79.90
2023-04-05T20:38:57.174Z,80.80
2023-04-05T20:41:25.454Z,81.60
2023-04-05T20:43:54.224Z,82.60
2023-04-05T20:46:22.427Z,84.40
2023-04-05T20:48:51.061Z,85.20
2023-04-05T20:51:20.988Z,84.30
2023-04-05T20:53:49.338Z,84.30
2023-04-05T20:56:17.868Z,84.40
2023-04-05T20:58:46.100Z,84.40
2023-04-05T21:01:14.343Z,84.40
2023-04-05T21:03:43.376Z,85.00
2023-04-05T21:06:11.795Z,85.90
2023-04-05T21:08:41.904Z,86.50
2023-04-05T21:11:11.711Z,86.80
2023-04-05T21:13:41.199Z,88.10
2023-04-05T21:16:09.505Z,89.20
2023-04-05T21:18:37.959Z,89.80
2023-04-05T21:21:06.494Z,90.10
2023-04-05T21:23:34.976Z,90.70
2023-04-05T21:26:06.038Z,91.70
2023-04-05T21:28:34.353Z,92.10
2023-04-05T21:31:02.545Z,92.50
2023-04-05T21:33:30.752Z,93.00
2023-04-05T21:35:59.028Z,93.40
2023-04-05T21:38:27.197Z,93.20
2023-04-05T21:40:55.727Z,93.30
2023-04-05T21:43:25.532Z,93.10
2023-04-05T21:45:53.931Z,92.70
2023-04-05T21:48:22.026Z,93.00
2023-04-05T21:50:50.189Z,93.30
2023-04-05T21:53:18.817Z,93.60
2023-04-05T21:55:46.973Z,93.50
2023-04-05T21:58:15.069Z,93.50
2023-04-05T22:00:44.596Z,93.60
2023-04-05T22:03:12.797Z,93.90
2023-04-05T22:05:42.170Z,94.20
2023-04-05T22:08:10.638Z,94.50
2023-04-05T22:10:39.460Z,94.90
2023-04-05T22:13:07.539Z,95.50
2023-04-05T22:15:35.697Z,96.00
2023-04-05T22:18:05.762Z,96.80
2023-04-05T22:20:34.019Z,97.30
2023-04-05T22:23:02.159Z,97.90
2023-04-05T22:25:30.481Z,98.50
2023-04-05T22:28:00.229Z,98.80
2023-04-05T22:30:40.880Z,99.30
2023-04-05T22:33:13.780Z,99.90
2023-04-05T22:35:42.423Z,99.90
2023-04-05T22:38:10.786Z,99.90
2023-04-05T22:40:38.894Z,99.90
2023-04-05T22:43:07.060Z,99.90
2023-04-05T22:45:35.211Z,99.90
2023-04-05T22:48:03.394Z,99.90
2023-04-05T22:50:33.344Z,99.90
2023-04-05T22:53:01.553Z,99.90
2023-04-05T22:55:29.975Z,99.90
2023-04-05T22:57:58.090Z,99.90
2023-04-05T23:00:26.267Z,99.90
2023-04-05T23:02:54.469Z,99.90
2023-04-05T23:05:22.752Z,99.90
2023-04-05T23:07:52.748Z,99.90
2023-04-05T23:10:21.445Z,99.90
2023-04-05T23:12:49.960Z,99.90
2023-04-05T23:15:18.180Z,99.90
2023-04-05T23:17:46.434Z,99.90
2023-04-05T23:20:14.625Z,99.90
2023-04-05T23:22:42.846Z,99.90
2023-04-05T23:25:12.503Z,99.90
2023-04-05T23:27:40.685Z,99.90
2023-04-05T23:30:09.816Z,99.90
2023-04-05T23:32:37.935Z,99.90
2023-04-05T23:35:06.743Z,99.90
2023-04-05T23:37:34.897Z,99.90
2023-04-05T23:40:03.196Z,99.90
2023-04-05T23:42:32.676Z,99.90
2023-04-05T23:45:02.829Z,99.90
2023-04-05T23:47:31.100Z,99.90
2023-04-05T23:49:59.225Z,99.90
2023-04-05T23:52:27.408Z,99.90
2023-04-05T23:54:55.496Z,99.90
2023-04-05T23:57:24.522Z,99.90
2023-04-05T23:59:53.988Z,99.90
